createdAt,value
2022-12-18T00:00:26.523Z,13.50
2022-12-18T00:03:28.983Z,14.13
2022-12-18T00:06:31.389Z,11.25
2022-12-18T00:09:40.000Z,11.93
2022-12-18T00:12:42.652Z,12.00
2022-12-18T00:15:45.117Z,12.55
2022-12-18T00:18:49.289Z,10.68
2022-12-18T00:21:51.855Z,11.85
2022-12-18T00:24:53.987Z,13.32
2022-12-18T00:27:56.580Z,10.55
2022-12-18T00:31:03.312Z,11.02
2022-12-18T00:34:05.832Z,11.88
2022-12-18T00:37:08.086Z,12.02
2022-12-18T00:40:11.238Z,10.37
2022-12-18T00:43:13.339Z,11.25
2022-12-18T00:46:15.696Z,12.75
2022-12-18T00:49:20.205Z,12.07
2022-12-18T00:52:22.951Z,14.48
2022-12-18T00:55:25.127Z,12.63
2022-12-18T00:58:27.536Z,10.30
2022-12-18T01:01:29.846Z,11.60
2022-12-18T01:04:33.500Z,10.52
2022-12-18T01:07:36.225Z,10.48
2022-12-18T01:10:42.426Z,11.65
2022-12-18T01:13:44.971Z,11.95
2022-12-18T01:16:47.444Z,9.32
2022-12-18T01:19:49.779Z,10.75
2022-12-18T01:22:52.199Z,12.40
2022-12-18T01:25:54.467Z,9.80
2022-12-18T01:28:57.727Z,11.00
2022-12-18T01:32:00.019Z,11.27
2022-12-18T01:35:02.691Z,14.27
2022-12-18T01:38:04.766Z,12.93
2022-12-18T01:41:09.250Z,9.52
2022-12-18T01:44:48.687Z,12.20
2022-12-18T01:47:55.772Z,10.73
2022-12-18T01:50:57.945Z,9.93
2022-12-18T01:54:00.809Z,11.07
2022-12-18T01:57:03.193Z,11.17
2022-12-18T02:00:11.896Z,10.55
2022-12-18T02:03:15.144Z,9.90
2022-12-18T02:06:33.209Z,10.18
2022-12-18T02:09:45.484Z,11.38
2022-12-18T02:13:12.035Z,12.47
2022-12-18T02:16:20.461Z,10.43
2022-12-18T02:19:48.239Z,9.13
2022-12-18T02:23:11.868Z,10.30
2022-12-18T02:26:22.962Z,9.07
2022-12-18T02:29:57.936Z,11.52
2022-12-18T02:33:03.353Z,10.90
2022-12-18T02:36:06.786Z,11.32
2022-12-18T02:39:12.656Z,14.65
2022-12-18T02:42:17.232Z,10.73
2022-12-18T02:45:19.800Z,12.35
2022-12-18T02:48:29.345Z,10.13
2022-12-18T02:51:44.471Z,11.18
2022-12-18T02:55:18.553Z,10.15
2022-12-18T03:01:48.575Z,9.82
2022-12-18T03:05:03.936Z,14.32
2022-12-18T03:08:13.644Z,10.25
2022-12-18T03:11:16.473Z,11.85
2022-12-18T03:14:22.337Z,10.75
2022-12-18T03:17:28.217Z,10.27
2022-12-18T03:20:35.043Z,12.52
2022-12-18T03:23:44.897Z,11.90
2022-12-18T03:26:53.224Z,12.02
2022-12-18T03:30:08.755Z,12.50
2022-12-18T03:33:28.456Z,11.18
2022-12-18T03:36:31.210Z,10.77
2022-12-18T03:39:35.713Z,10.75
2022-12-18T03:42:56.667Z,11.23
2022-12-18T03:46:09.104Z,11.77
2022-12-18T03:49:26.733Z,12.13
2022-12-18T03:52:46.268Z,13.23
2022-12-18T03:55:51.095Z,14.40
2022-12-18T03:58:55.279Z,11.02
2022-12-18T04:02:00.787Z,13.02
2022-12-18T04:05:06.964Z,11.50
2022-12-18T04:08:10.090Z,12.63
2022-12-18T04:11:13.423Z,13.30
2022-12-18T04:14:18.245Z,14.43
2022-12-18T04:17:23.396Z,12.82
2022-12-18T04:23:29.288Z,10.47
2022-12-18T04:26:32.020Z,11.65
2022-12-18T04:29:35.638Z,11.02
2022-12-18T04:32:37.816Z,11.85
2022-12-18T04:35:42.630Z,12.30
2022-12-18T04:38:44.926Z,14.52
2022-12-18T04:41:47.769Z,11.88
2022-12-18T04:44:49.946Z,13.40
2022-12-18T04:47:52.344Z,14.32
2022-12-18T04:50:54.426Z,12.98
2022-12-18T04:53:56.945Z,10.73
2022-12-18T04:56:59.131Z,11.95
2022-12-18T05:00:02.438Z,13.20
2022-12-18T05:03:04.747Z,13.35
2022-12-18T05:06:08.250Z,12.90
2022-12-18T05:09:10.358Z,14.45
2022-12-18T05:12:12.777Z,11.02
2022-12-18T05:15:14.913Z,13.57
2022-12-18T05:18:17.340Z,14.93
2022-12-18T05:21:19.448Z,12.57
2022-12-18T05:24:21.860Z,11.82
2022-12-18T05:27:24.034Z,11.10
2022-12-18T05:30:26.543Z,12.45
2022-12-18T05:33:31.998Z,12.93
2022-12-18T05:36:34.391Z,10.35
2022-12-18T05:39:36.489Z,11.12
2022-12-18T05:42:38.951Z,13.02
2022-12-18T05:45:42.234Z,14.23
2022-12-18T05:48:46.027Z,12.32
2022-12-18T05:51:48.264Z,15.25
2022-12-18T05:54:50.724Z,11.83
2022-12-18T05:57:52.877Z,12.05
2022-12-18T06:00:55.364Z,12.70
2022-12-18T06:03:57.870Z,12.63
2022-12-18T06:07:00.192Z,13.70
2022-12-18T06:10:02.857Z,10.88
2022-12-18T06:13:05.639Z,11.50
2022-12-18T06:16:09.179Z,15.57
2022-12-18T06:19:16.504Z,12.60
2022-12-18T06:22:19.182Z,12.15
2022-12-18T06:25:21.394Z,12.57
2022-12-18T06:28:23.905Z,13.77
2022-12-18T06:31:26.526Z,12.27
2022-12-18T06:34:29.037Z,11.93
2022-12-18T06:37:33.940Z,14.15
2022-12-18T06:40:39.988Z,10.73
2022-12-18T06:43:43.011Z,12.32
2022-12-18T06:46:45.701Z,13.32
2022-12-18T06:49:47.783Z,10.77
2022-12-18T06:52:50.172Z,13.27
2022-12-18T06:55:52.368Z,12.05
2022-12-18T06:58:54.909Z,13.73
2022-12-18T07:01:57.222Z,12.70
2022-12-18T07:04:59.845Z,13.85
2022-12-18T07:08:01.968Z,12.40
2022-12-18T07:11:05.899Z,14.00
2022-12-18T07:14:07.979Z,13.10
2022-12-18T07:17:10.547Z,12.25
2022-12-18T07:20:12.699Z,13.05
2022-12-18T07:23:15.180Z,9.93
2022-12-18T07:26:20.623Z,14.90
2022-12-18T07:29:23.077Z,14.25
2022-12-18T07:32:25.236Z,13.43
2022-12-18T07:35:27.682Z,15.95
2022-12-18T07:38:30.141Z,16.05
2022-12-18T07:41:33.815Z,11.07
2022-12-18T07:44:40.380Z,11.50
2022-12-18T07:47:42.793Z,13.57
2022-12-18T07:50:44.905Z,11.95
2022-12-18T07:53:49.449Z,13.10
2022-12-18T07:56:54.490Z,10.73
2022-12-18T07:59:56.927Z,14.25
2022-12-18T08:02:59.226Z,12.90
2022-12-18T08:06:07.592Z,14.87
2022-12-18T08:09:11.109Z,15.40
2022-12-18T08:12:13.481Z,14.77
2022-12-18T08:15:15.731Z,15.02
2022-12-18T08:18:18.095Z,13.93
2022-12-18T08:21:24.116Z,13.80
2022-12-18T08:24:26.704Z,16.37
2022-12-18T08:27:29.899Z,13.55
2022-12-18T08:30:32.830Z,14.70
2022-12-18T08:33:36.367Z,12.30
2022-12-18T08:36:38.874Z,14.75
2022-12-18T08:39:40.969Z,14.10
2022-12-18T08:43:02.056Z,14.07
2022-12-18T08:46:04.331Z,13.43
2022-12-18T08:49:08.219Z,14.97
2022-12-18T08:55:12.614Z,13.90
2022-12-18T08:58:14.732Z,15.73
2022-12-18T09:01:17.396Z,14.20
2022-12-18T09:04:19.643Z,13.62
2022-12-18T09:07:22.037Z,16.98
2022-12-18T09:10:24.190Z,16.00
2022-12-18T09:13:26.698Z,13.38
2022-12-18T09:16:32.235Z,16.95
2022-12-18T09:19:35.281Z,15.98
2022-12-18T09:22:37.397Z,16.58
2022-12-18T09:25:40.523Z,16.55
2022-12-18T09:28:44.069Z,13.65
2022-12-18T09:31:46.547Z,16.48
2022-12-18T09:34:48.707Z,19.02
2022-12-18T09:37:51.176Z,17.48
2022-12-18T09:40:58.548Z,17.70
2022-12-18T09:44:06.745Z,16.17
2022-12-18T09:47:16.006Z,18.58
2022-12-18T09:50:33.657Z,17.35
2022-12-18T09:53:42.602Z,16.23
2022-12-18T09:56:45.284Z,19.37
2022-12-18T09:59:52.926Z,17.70
2022-12-18T10:03:02.561Z,17.35
2022-12-18T10:06:08.095Z,17.85
2022-12-18T10:09:23.438Z,14.73
2022-12-18T10:12:38.766Z,15.23
2022-12-18T10:16:13.881Z,15.75
2022-12-18T10:19:24.001Z,14.73
2022-12-18T10:22:44.685Z,16.27
2022-12-18T10:26:01.388Z,14.98
2022-12-18T10:29:12.051Z,14.48
2022-12-18T10:32:18.105Z,15.75
2022-12-18T10:35:26.721Z,18.00
2022-12-18T10:38:32.637Z,16.35
2022-12-18T10:41:34.859Z,17.15
2022-12-18T10:44:37.276Z,15.93
2022-12-18T10:47:57.490Z,16.00
2022-12-18T10:51:10.813Z,15.25
2022-12-18T10:54:24.928Z,16.58
2022-12-18T10:57:27.246Z,15.10
2022-12-18T11:00:31.634Z,17.08
2022-12-18T11:03:45.397Z,15.27
2022-12-18T11:07:14.127Z,18.73
2022-12-18T11:10:21.704Z,16.20
2022-12-18T11:13:27.163Z,14.25
2022-12-18T11:16:32.152Z,17.92
2022-12-18T11:19:40.646Z,14.60
2022-12-18T11:22:43.518Z,14.35
2022-12-18T11:25:54.628Z,16.25
2022-12-18T11:29:11.888Z,17.00
2022-12-18T11:32:38.097Z,13.75
2022-12-18T11:35:40.445Z,15.30
2022-12-18T11:38:45.590Z,18.20
2022-12-18T11:42:10.664Z,16.40
2022-12-18T11:45:14.126Z,14.87
2022-12-18T11:51:44.409Z,14.98
2022-12-18T11:54:46.825Z,17.35
2022-12-18T11:58:02.773Z,15.45
2022-12-18T12:01:23.600Z,14.65
2022-12-18T12:04:49.977Z,15.50
2022-12-18T12:08:01.141Z,16.73
2022-12-18T12:11:34.498Z,16.02
2022-12-18T12:14:56.345Z,15.57
2022-12-18T12:19:01.344Z,16.98
2022-12-18T12:22:17.854Z,15.73
2022-12-18T12:25:30.456Z,16.87
2022-12-18T12:28:58.628Z,16.58
2022-12-18T12:32:13.494Z,16.87
2022-12-18T12:35:43.284Z,14.27
2022-12-18T12:38:52.345Z,14.55
2022-12-18T12:42:13.812Z,15.30
2022-12-18T12:45:27.442Z,15.07
2022-12-18T12:48:39.082Z,17.90
2022-12-18T12:51:46.147Z,18.30
2022-12-18T12:54:50.765Z,17.48
2022-12-18T12:58:06.655Z,18.08
2022-12-18T13:01:27.663Z,17.67
2022-12-18T13:04:33.148Z,17.55
2022-12-18T13:07:41.344Z,17.52
2022-12-18T13:10:43.863Z,16.25
2022-12-18T13:13:50.634Z,17.42
2022-12-18T13:17:16.633Z,16.83
2022-12-18T13:20:18.878Z,16.62
2022-12-18T13:23:21.222Z,19.87
2022-12-18T13:26:28.764Z,20.40
2022-12-18T13:29:47.429Z,20.08
2022-12-18T13:33:15.413Z,20.60
2022-12-18T13:36:29.094Z,21.80
2022-12-18T13:43:14.127Z,19.60
2022-12-18T13:46:22.108Z,23.75
2022-12-18T13:49:40.692Z,22.33
2022-12-18T13:52:44.628Z,21.20
2022-12-18T13:55:47.242Z,21.08
2022-12-18T13:59:24.762Z,20.37
2022-12-18T14:02:29.665Z,18.90
2022-12-18T14:05:36.537Z,19.92
2022-12-18T14:08:44.126Z,19.02
2022-12-18T14:11:50.292Z,20.77
2022-12-18T14:14:54.918Z,20.25
2022-12-18T14:18:14.279Z,19.58
2022-12-18T14:21:30.881Z,17.80
2022-12-18T14:24:33.829Z,17.98
2022-12-18T14:27:39.013Z,20.27
2022-12-18T14:30:46.953Z,19.27
2022-12-18T14:33:49.472Z,20.30
2022-12-18T14:36:56.848Z,20.37
2022-12-18T14:40:11.347Z,18.48
2022-12-18T14:43:14.575Z,17.02
2022-12-18T14:46:34.107Z,18.33
2022-12-18T14:49:38.085Z,20.50
2022-12-18T14:55:49.428Z,18.62
2022-12-18T14:58:59.057Z,19.55
2022-12-18T15:02:35.601Z,22.27
2022-12-18T15:05:37.893Z,21.60
2022-12-18T15:08:40.538Z,19.37
2022-12-18T15:11:42.739Z,19.60
2022-12-18T15:14:45.156Z,19.40
2022-12-18T15:17:47.291Z,20.62
2022-12-18T15:21:08.154Z,24.15
2022-12-18T15:24:20.165Z,18.58
2022-12-18T15:27:36.677Z,19.70
2022-12-18T15:30:38.926Z,18.83
2022-12-18T15:34:15.364Z,19.00
2022-12-18T15:37:17.545Z,20.17
2022-12-18T15:40:24.928Z,20.40
2022-12-18T15:43:34.974Z,17.20
2022-12-18T15:46:37.466Z,19.00
2022-12-18T15:49:40.550Z,20.97
2022-12-18T15:52:46.115Z,21.80
2022-12-18T15:56:06.836Z,18.55
2022-12-18T15:59:15.024Z,18.42
2022-12-18T16:02:19.339Z,20.15
2022-12-18T16:05:23.903Z,25.70
2022-12-18T16:08:25.990Z,20.92
2022-12-18T16:11:39.614Z,22.08
2022-12-18T16:14:41.772Z,20.42
2022-12-18T16:17:45.243Z,19.95
2022-12-18T16:20:49.581Z,20.77
2022-12-18T16:23:52.017Z,22.42
2022-12-18T16:26:55.150Z,23.17
2022-12-18T16:29:57.695Z,21.75
2022-12-18T16:33:00.720Z,23.83
2022-12-18T16:36:03.326Z,22.90
2022-12-18T16:39:05.451Z,21.02
2022-12-18T16:42:17.876Z,22.30
2022-12-18T16:45:20.117Z,23.35
2022-12-18T16:48:22.568Z,22.73
2022-12-18T16:51:25.150Z,19.17
2022-12-18T16:54:30.401Z,20.77
2022-12-18T16:57:32.628Z,24.65
2022-12-18T17:00:35.041Z,26.12
2022-12-18T17:03:37.802Z,21.35
2022-12-18T17:06:43.070Z,23.45
2022-12-18T17:09:46.227Z,23.58
2022-12-18T17:12:51.148Z,21.25
2022-12-18T17:15:53.879Z,22.52
2022-12-18T17:18:56.276Z,21.92
2022-12-18T17:21:58.468Z,21.17
2022-12-18T17:25:00.899Z,22.90
2022-12-18T17:28:03.016Z,21.00
2022-12-18T17:31:14.322Z,20.45
2022-12-18T17:34:16.569Z,24.70
2022-12-18T17:37:18.986Z,24.05
2022-12-18T17:40:21.193Z,21.90
2022-12-18T17:43:23.586Z,24.17
2022-12-18T17:46:27.423Z,25.33
2022-12-18T17:49:29.868Z,25.92
2022-12-18T17:52:32.026Z,24.98
2022-12-18T17:55:34.506Z,23.27
2022-12-18T17:58:37.226Z,25.65
2022-12-18T18:01:44.749Z,24.60
2022-12-18T18:04:47.929Z,23.48
2022-12-18T18:07:50.081Z,26.70
2022-12-18T18:10:55.044Z,26.25
2022-12-18T18:14:01.000Z,25.12
2022-12-18T18:17:04.816Z,29.08
2022-12-18T18:20:07.801Z,24.90
2022-12-18T18:23:10.183Z,23.75
2022-12-18T18:26:12.383Z,27.25
2022-12-18T18:29:17.487Z,27.07
2022-12-18T18:32:21.034Z,27.02
2022-12-18T18:35:52.253Z,29.10
2022-12-18T18:38:48.569Z,27.25
2022-12-18T18:41:51.256Z,26.65
2022-12-18T18:44:53.342Z,25.33
2022-12-18T18:47:56.191Z,29.92
2022-12-18T18:51:00.709Z,27.30
2022-12-18T18:54:03.134Z,27.90
2022-12-18T18:57:20.265Z,25.40
2022-12-18T19:00:23.426Z,26.67
2022-12-18T19:03:27.172Z,26.98
2022-12-18T19:06:29.975Z,27.33
2022-12-18T19:09:33.706Z,26.70
2022-12-18T19:12:54.654Z,28.73
2022-12-18T19:16:08.032Z,25.83
2022-12-18T19:19:13.320Z,30.05
2022-12-18T19:22:15.877Z,26.60
2022-12-18T19:25:18.734Z,28.20
2022-12-18T19:28:25.965Z,30.65
2022-12-18T19:31:34.769Z,26.17
2022-12-18T19:34:38.062Z,27.73
2022-12-18T19:37:40.782Z,25.12
2022-12-18T19:40:44.488Z,23.23
2022-12-18T19:43:47.604Z,26.87
2022-12-18T19:46:51.460Z,24.83
2022-12-18T19:49:53.917Z,23.62
2022-12-18T19:52:56.177Z,23.83
2022-12-18T19:55:58.659Z,26.70
2022-12-18T19:59:01.520Z,25.65
2022-12-18T20:02:04.152Z,25.23
2022-12-18T20:05:09.500Z,26.75
2022-12-18T20:08:11.899Z,23.62
2022-12-18T20:11:14.325Z,26.02
2022-12-18T20:14:18.756Z,26.77
2022-12-18T20:17:25.825Z,30.42
2022-12-18T20:20:28.181Z,28.25
2022-12-18T20:23:31.264Z,26.57
2022-12-18T20:26:35.388Z,31.27
2022-12-18T20:29:37.912Z,30.17
2022-12-18T20:32:40.069Z,27.90
2022-12-18T20:35:43.143Z,28.58
2022-12-18T20:38:46.135Z,28.92
2022-12-18T20:41:50.945Z,29.95
2022-12-18T20:44:53.099Z,30.02
2022-12-18T20:47:55.596Z,30.90
2022-12-18T20:51:07.251Z,32.03
2022-12-18T20:54:11.925Z,28.52
2022-12-18T20:57:14.319Z,30.75
2022-12-18T21:00:18.975Z,29.40
2022-12-18T21:03:23.506Z,31.10
2022-12-18T21:06:26.472Z,31.50
2022-12-18T21:09:35.934Z,29.02
2022-12-18T21:12:56.148Z,30.10
2022-12-18T21:16:05.173Z,25.85
2022-12-18T21:19:11.263Z,24.27
2022-12-18T21:22:13.598Z,28.02
2022-12-18T21:25:16.577Z,25.02
2022-12-18T21:28:18.781Z,28.42
2022-12-18T21:31:23.388Z,25.98
2022-12-18T21:34:28.519Z,27.67
2022-12-18T21:37:30.969Z,29.60
2022-12-18T21:40:33.076Z,31.12
2022-12-18T21:43:57.838Z,35.67
2022-12-18T21:47:09.396Z,29.63
2022-12-18T21:50:17.128Z,28.23
2022-12-18T21:53:19.264Z,26.80
2022-12-18T21:56:21.786Z,27.52
2022-12-18T21:59:23.930Z,32.67
2022-12-18T22:02:26.685Z,31.80
2022-12-18T22:05:29.497Z,34.80
2022-12-18T22:08:31.616Z,28.52
2022-12-18T22:11:34.093Z,29.80
2022-12-18T22:14:36.295Z,31.05
2022-12-18T22:17:39.470Z,28.75
2022-12-18T22:20:41.928Z,29.58
2022-12-18T22:23:44.328Z,30.65
2022-12-18T22:26:47.273Z,28.98
2022-12-18T22:30:04.930Z,32.17
2022-12-18T22:33:07.019Z,30.10
2022-12-18T22:36:09.579Z,29.87
2022-12-18T22:39:15.377Z,28.02
2022-12-18T22:42:17.860Z,30.25
2022-12-18T22:45:20.533Z,31.33
2022-12-18T22:48:22.973Z,28.65
2022-12-18T22:51:25.529Z,34.10
2022-12-18T22:54:27.960Z,29.10
2022-12-18T22:57:30.117Z,28.35
2022-12-18T23:00:32.996Z,32.95
2022-12-18T23:03:35.910Z,32.57
2022-12-18T23:06:40.262Z,29.80
2022-12-18T23:09:42.413Z,29.02
2022-12-18T23:12:44.764Z,29.37
2022-12-18T23:15:47.445Z,30.37
2022-12-18T23:18:55.322Z,34.28
2022-12-18T23:21:58.734Z,30.17
2022-12-18T23:25:01.158Z,30.60
2022-12-18T23:28:03.909Z,31.45
2022-12-18T23:31:12.256Z,28.98
2022-12-18T23:34:17.988Z,27.67
2022-12-18T23:37:42.340Z,29.52
2022-12-18T23:40:42.874Z,29.55
2022-12-18T23:43:47.608Z,30.30
2022-12-18T23:46:50.614Z,33.22
2022-12-18T23:49:53.111Z,29.77
2022-12-18T23:52:55.504Z,28.83
2022-12-18T23:55:59.683Z,27.83
2022-12-18T23:59:01.850Z,27.05
